Pagina principale
METAR-TAF:

METAR-TAF

Aeroporti :

Aeroporto di Viterbo

Viterbo, Italia

latitudine: 42-26N, longitudine: 012-03E, altezza: 300 m

Osservazione

Il bollettino è stato emesso 9 ore e 51 minuti fa, alle 17:55 UTC
Temperature 19°C
Umidità 78%
Pressione 1013 hPa
Visibilità 10 km o più
nessuna nube inferiore a 1500 m e nessun cumulonembo

METAR: LIRV 181755Z /////KT CAVOK 19/15 Q1013 RMK SKC MON E SE LIB NC VIS MIN 9999 BLU

Ora: 05:46 (03:46 UTC)

Previsione

Il bollettino è stato emesso 10 ore e 46 minuti fa, alle 17:00 UTC
Previsione valida dal 18 alle 18 UTC al 19 alle 03 UTC
Vento 5 kt da nord-est
Visibilità 10 km o più
nessuna nube inferiore a 1500 m e nessun cumulonembo

TAF: LIRV 181700Z 1818/1903 04005KT CAVOK

Osservazioni e previsioni meteorologiche di più di 4000 aeroporti (messaggi METAR e TAF).

Le stazioni disponibili sono rappresentate dai dischi gialli e rossi sulla carta.

Puntare il mouse per vedere il nome della stazione.

Clicca sopra per visualizzare le osservazioni e previsioni meteorologiche.

Per cambiare la mappa : fare clic sui pulsanti verdi con una croce nera per ingrandire, il pulsante verde con un trattino per diminuire, o sulla freccia verde per le mappe adiacenti.


METAR-TAF: